createdAt,value
2017-07-12T00:00:35.216Z,19.06
2017-07-12T00:01:15.757Z,19.04
2017-07-12T00:01:56.300Z,19.04
2017-07-12T00:02:36.870Z,19.07
2017-07-12T00:03:17.370Z,19.1
2017-07-12T00:03:57.918Z,19.07
2017-07-12T00:04:38.452Z,19.04
2017-07-12T00:05:18.991Z,19.06
2017-07-12T00:05:59.533Z,19.07
2017-07-12T00:06:40.071Z,19.08
2017-07-12T00:07:20.609Z,19.02
2017-07-12T00:08:01.143Z,19.07
2017-07-12T00:08:41.677Z,19.06
2017-07-12T00:09:22.218Z,19.04
2017-07-12T00:10:02.760Z,19.02
2017-07-12T00:10:43.307Z,19.07
2017-07-12T00:11:23.839Z,19.04
2017-07-12T00:12:04.388Z,19.07
2017-07-12T00:12:44.928Z,19.1
2017-07-12T00:13:25.468Z,19.07
2017-07-12T00:14:06.003Z,19.07
2017-07-12T00:14:46.547Z,19.08
2017-07-12T00:15:27.086Z,19.07
2017-07-12T00:16:07.633Z,19.02
2017-07-12T00:16:48.168Z,19.06
2017-07-12T00:17:28.714Z,19.02
2017-07-12T00:18:09.261Z,19.1
2017-07-12T00:18:49.802Z,19.14
2017-07-12T00:19:30.345Z,19.02
2017-07-12T00:20:10.887Z,19.06
2017-07-12T00:20:51.427Z,19.04
2017-07-12T00:21:31.965Z,19.04
2017-07-12T00:22:12.505Z,19.11
2017-07-12T00:22:53.045Z,19.08
2017-07-12T00:23:33.588Z,19.06
2017-07-12T00:24:14.130Z,19.14
2017-07-12T00:24:54.673Z,19.14
2017-07-12T00:25:35.219Z,19.08
2017-07-12T00:26:15.758Z,19.14
2017-07-12T00:26:56.301Z,19.1
2017-07-12T00:27:36.832Z,19.13
2017-07-12T00:28:17.374Z,19.08
2017-07-12T00:28:57.906Z,19.18
2017-07-12T00:29:38.470Z,19.07
2017-07-12T00:30:19.012Z,19.19
2017-07-12T00:30:59.547Z,19.08
2017-07-12T00:31:40.096Z,19.11
2017-07-12T00:32:20.634Z,19.08
2017-07-12T00:33:01.173Z,19.04
2017-07-12T00:33:41.714Z,19.14
2017-07-12T00:34:22.258Z,19.07
2017-07-12T00:35:02.801Z,19.1
2017-07-12T00:35:43.340Z,19.13
2017-07-12T00:36:23.875Z,19.07
2017-07-12T00:37:04.416Z,19.11
2017-07-12T00:37:44.956Z,19.04
2017-07-12T00:38:25.506Z,19.04
2017-07-12T00:39:06.054Z,19.07
2017-07-12T00:39:46.589Z,19.06
2017-07-12T00:40:27.131Z,19.02
2017-07-12T00:41:07.670Z,19.02
2017-07-12T00:41:48.206Z,19.06
2017-07-12T00:42:28.748Z,19.04
2017-07-12T00:43:09.278Z,19.13
2017-07-12T00:43:49.817Z,19.06
2017-07-12T00:44:30.353Z,19.07
2017-07-12T00:45:10.895Z,19.07
2017-07-12T00:45:51.434Z,19.04
2017-07-12T00:46:31.963Z,19.07
2017-07-12T00:47:12.510Z,19.06
2017-07-12T00:47:53.048Z,19.04
2017-07-12T00:48:33.587Z,19.08
2017-07-12T00:49:14.129Z,19.06
2017-07-12T00:49:54.675Z,19.08
2017-07-12T00:50:35.211Z,19.07
2017-07-12T00:51:15.756Z,19.02
2017-07-12T00:51:56.300Z,19.11
2017-07-12T00:52:36.831Z,19.11
2017-07-12T00:53:17.374Z,19.14
2017-07-12T00:53:57.917Z,19.11
2017-07-12T00:54:38.458Z,19.11
2017-07-12T00:55:18.992Z,19.08
2017-07-12T00:55:59.531Z,19.1
2017-07-12T00:56:40.074Z,19.14
2017-07-12T00:57:20.609Z,19.11
2017-07-12T00:58:01.178Z,19.16
2017-07-12T00:58:41.718Z,19.13
2017-07-12T00:59:22.259Z,19.06
2017-07-12T01:00:02.807Z,19.08
2017-07-12T01:00:43.342Z,19.21
2017-07-12T01:01:23.882Z,19.11
2017-07-12T01:02:04.424Z,19.14
2017-07-12T01:02:44.963Z,19.13
2017-07-12T01:03:25.502Z,19.21
2017-07-12T01:04:06.044Z,19.22
2017-07-12T01:04:46.581Z,19.13
2017-07-12T01:05:27.130Z,19.16
2017-07-12T01:06:07.663Z,19.08
2017-07-12T01:06:48.203Z,19.14
2017-07-12T01:07:28.743Z,19.18
2017-07-12T01:08:09.282Z,19.18
2017-07-12T01:08:49.822Z,19.16
2017-07-12T01:09:30.356Z,19.13
2017-07-12T01:10:10.895Z,19.19
2017-07-12T01:10:51.434Z,19.13
2017-07-12T01:11:31.973Z,19.19
2017-07-12T01:12:12.515Z,19.22
2017-07-12T01:12:53.060Z,19.13
2017-07-12T01:13:33.600Z,19.11
2017-07-12T01:14:14.140Z,19.14
2017-07-12T01:14:54.678Z,19.14
2017-07-12T01:15:35.220Z,19.16
2017-07-12T01:16:15.760Z,19.16
2017-07-12T01:16:56.295Z,19.21
2017-07-12T01:17:36.835Z,19.22
2017-07-12T01:18:17.374Z,19.14
2017-07-12T01:18:57.910Z,19.21
2017-07-12T01:19:38.456Z,19.21
2017-07-12T01:20:19.001Z,19.16
2017-07-12T01:20:59.545Z,19.11
2017-07-12T01:21:40.087Z,19.19
2017-07-12T01:22:20.630Z,19.18
2017-07-12T01:23:01.176Z,19.13
2017-07-12T01:23:41.718Z,19.13
2017-07-12T01:24:22.258Z,19.19
2017-07-12T01:25:02.800Z,19.26
2017-07-12T01:25:43.341Z,19.16
2017-07-12T01:26:23.885Z,19.25
2017-07-12T01:27:04.423Z,19.21
2017-07-12T01:27:44.962Z,19.18
2017-07-12T01:28:25.502Z,19.23
2017-07-12T01:29:06.043Z,19.21
2017-07-12T01:29:46.577Z,19.11
2017-07-12T01:30:27.122Z,19.14
2017-07-12T01:31:07.659Z,19.04
2017-07-12T01:31:48.234Z,19.16
2017-07-12T01:32:28.767Z,19.14
2017-07-12T01:33:09.312Z,19.16
2017-07-12T01:33:49.848Z,19.13
2017-07-12T01:34:30.398Z,19.11
2017-07-12T01:35:10.950Z,19.14
2017-07-12T01:35:51.495Z,19.14
2017-07-12T01:36:32.030Z,19.13
2017-07-12T01:37:12.576Z,19.14
2017-07-12T01:37:53.120Z,19.18
2017-07-12T01:38:33.665Z,19.22
2017-07-12T01:39:14.206Z,19.13
2017-07-12T01:39:54.738Z,19.13
2017-07-12T01:40:35.284Z,19.19
2017-07-12T01:41:15.819Z,19.23
2017-07-12T01:41:56.361Z,19.16
2017-07-12T01:42:36.900Z,19.28
2017-07-12T01:43:17.443Z,19.29
2017-07-12T01:43:57.991Z,19.18
2017-07-12T01:44:38.531Z,19.25
2017-07-12T01:45:19.071Z,19.19
2017-07-12T01:45:59.620Z,19.29
2017-07-12T01:46:40.162Z,19.18
2017-07-12T01:47:20.697Z,19.22
2017-07-12T01:48:01.240Z,19.28
2017-07-12T01:48:41.776Z,19.16
2017-07-12T01:49:22.319Z,19.25
2017-07-12T01:50:02.862Z,19.29
2017-07-12T01:50:43.403Z,19.25
2017-07-12T01:51:23.946Z,19.25
2017-07-12T01:52:04.489Z,19.21
2017-07-12T01:52:45.029Z,19.21
2017-07-12T01:53:25.558Z,19.25
2017-07-12T01:54:06.104Z,19.25
2017-07-12T01:54:46.645Z,19.25
2017-07-12T01:55:27.182Z,19.25
2017-07-12T01:56:07.739Z,19.26
2017-07-12T01:56:48.264Z,19.21
2017-07-12T01:57:28.808Z,19.26
2017-07-12T01:58:09.344Z,19.23
2017-07-12T01:58:49.882Z,19.28
2017-07-12T01:59:30.423Z,19.21
2017-07-12T02:00:10.964Z,19.23
2017-07-12T02:00:51.503Z,19.25
2017-07-12T02:01:32.041Z,19.21
2017-07-12T02:02:12.589Z,19.22
2017-07-12T02:02:53.128Z,19.32
2017-07-12T02:03:33.672Z,19.23
2017-07-12T02:04:14.211Z,19.31
2017-07-12T02:04:54.746Z,19.25
2017-07-12T02:05:35.286Z,19.28
2017-07-12T02:06:15.816Z,19.25
2017-07-12T02:06:56.359Z,19.25
2017-07-12T02:07:36.903Z,19.29
2017-07-12T02:08:17.445Z,19.23
2017-07-12T02:08:57.997Z,19.25
2017-07-12T02:09:38.536Z,19.25
2017-07-12T02:10:19.079Z,19.31
2017-07-12T02:10:59.620Z,19.31
2017-07-12T02:11:40.162Z,19.25
2017-07-12T02:12:20.708Z,19.26
2017-07-12T02:13:01.246Z,19.25
2017-07-12T02:13:41.787Z,19.29
2017-07-12T02:14:22.339Z,19.28
2017-07-12T02:15:02.870Z,19.31
2017-07-12T02:15:43.407Z,19.19
2017-07-12T02:16:23.951Z,19.23
2017-07-12T02:17:04.492Z,19.32
2017-07-12T02:17:45.079Z,19.33
2017-07-12T02:18:25.618Z,19.28
2017-07-12T02:19:06.158Z,19.36
2017-07-12T02:19:46.696Z,19.32
2017-07-12T02:20:27.251Z,19.31
2017-07-12T02:21:07.792Z,19.29
2017-07-12T02:21:48.391Z,19.28
2017-07-12T02:22:28.879Z,19.33
2017-07-12T02:23:09.420Z,19.31
2017-07-12T02:23:49.954Z,19.28
2017-07-12T02:24:30.498Z,19.29
2017-07-12T02:25:11.037Z,19.32
2017-07-12T02:25:51.581Z,19.32
2017-07-12T02:26:32.114Z,19.32
2017-07-12T02:27:12.654Z,19.29
2017-07-12T02:27:53.195Z,19.29
2017-07-12T02:28:33.738Z,19.26
2017-07-12T02:29:14.276Z,19.33
2017-07-12T02:29:54.813Z,19.39
2017-07-12T02:30:35.354Z,19.26
2017-07-12T02:31:15.900Z,19.29
2017-07-12T02:31:56.439Z,19.28
2017-07-12T02:32:36.970Z,19.31
2017-07-12T02:33:17.521Z,19.26
2017-07-12T02:33:58.058Z,19.26
2017-07-12T02:34:38.602Z,19.26
2017-07-12T02:35:19.154Z,19.14
2017-07-12T02:35:59.693Z,19.13
2017-07-12T02:36:40.235Z,19.18
2017-07-12T02:37:20.780Z,19.02
2017-07-12T02:38:01.321Z,19.06
2017-07-12T02:38:41.868Z,19
2017-07-12T02:39:22.400Z,18.92
2017-07-12T02:40:02.943Z,18.92
2017-07-12T02:40:43.485Z,18.87
2017-07-12T02:41:24.028Z,18.9
2017-07-12T02:42:04.570Z,18.82
2017-07-12T02:42:45.111Z,18.76
2017-07-12T02:43:25.660Z,18.82
2017-07-12T02:44:06.206Z,18.8
2017-07-12T02:44:46.746Z,18.81
2017-07-12T02:45:27.294Z,18.76
2017-07-12T02:46:07.841Z,18.73
2017-07-12T02:46:48.395Z,18.75
2017-07-12T02:47:28.926Z,18.76
2017-07-12T02:48:09.528Z,18.7
2017-07-12T02:48:50.072Z,18.76
2017-07-12T02:49:30.618Z,18.76
2017-07-12T02:50:11.159Z,18.8
2017-07-12T02:50:51.701Z,18.78
2017-07-12T02:51:32.246Z,18.82
2017-07-12T02:52:12.778Z,18.82
2017-07-12T02:52:53.316Z,18.8
2017-07-12T02:53:33.849Z,18.78
2017-07-12T02:54:14.394Z,18.82
2017-07-12T02:54:54.926Z,18.85
2017-07-12T02:55:35.468Z,18.9
2017-07-12T02:56:16.008Z,18.88
2017-07-12T02:56:56.552Z,18.9
2017-07-12T02:57:37.097Z,18.94
2017-07-12T02:58:17.641Z,18.92
2017-07-12T02:58:58.176Z,19
2017-07-12T02:59:38.720Z,18.99
2017-07-12T03:00:19.261Z,19.02
2017-07-12T03:00:59.818Z,19.08
2017-07-12T03:01:40.358Z,19.02
2017-07-12T03:02:20.905Z,19.04
2017-07-12T03:03:01.438Z,19.16
2017-07-12T03:03:41.984Z,19.1
2017-07-12T03:04:22.534Z,19.13
2017-07-12T03:05:03.074Z,19.1
2017-07-12T03:05:43.620Z,19.14
2017-07-12T03:06:24.179Z,19.11
2017-07-12T03:07:04.706Z,19.18
2017-07-12T03:07:45.253Z,19.13
2017-07-12T03:08:25.781Z,19.14
2017-07-12T03:09:06.321Z,19.16
2017-07-12T03:09:46.863Z,19.08
2017-07-12T03:10:27.410Z,19.02
2017-07-12T03:11:07.949Z,18.99
2017-07-12T03:11:48.504Z,19.02
2017-07-12T03:12:29.047Z,19
2017-07-12T03:13:09.593Z,18.98
2017-07-12T03:13:50.132Z,18.9
2017-07-12T03:14:30.678Z,18.84
2017-07-12T03:15:11.223Z,18.78
2017-07-12T03:15:51.769Z,18.76
2017-07-12T03:16:32.302Z,18.75
2017-07-12T03:17:12.842Z,18.72
2017-07-12T03:17:53.385Z,18.73
2017-07-12T03:18:33.927Z,18.66
2017-07-12T03:19:14.486Z,18.75
2017-07-12T03:19:55.011Z,18.72
2017-07-12T03:20:35.554Z,18.66
2017-07-12T03:21:16.097Z,18.7
2017-07-12T03:21:56.638Z,18.67
2017-07-12T03:22:37.181Z,18.67
2017-07-12T03:23:17.733Z,18.69
2017-07-12T03:23:58.274Z,18.69
2017-07-12T03:24:38.816Z,18.75
2017-07-12T03:25:19.353Z,18.72
2017-07-12T03:26:01.863Z,18.75
2017-07-12T03:26:42.405Z,18.78
2017-07-12T03:27:22.947Z,18.76
2017-07-12T03:28:03.480Z,18.8
2017-07-12T03:28:44.028Z,18.75
2017-07-12T03:29:24.565Z,18.73
2017-07-12T03:30:05.109Z,18.7
2017-07-12T03:30:45.659Z,18.67
2017-07-12T03:31:26.195Z,18.7
2017-07-12T03:32:06.742Z,18.55
2017-07-12T03:32:47.286Z,18.55
2017-07-12T03:33:27.829Z,18.51
2017-07-12T03:34:08.372Z,18.48
2017-07-12T03:34:48.897Z,18.32
2017-07-12T03:35:29.456Z,18.3
2017-07-12T03:36:10.000Z,18.37
2017-07-12T03:36:50.536Z,18.29
2017-07-12T03:37:31.086Z,18.26
2017-07-12T03:38:11.623Z,18.1
2017-07-12T03:38:52.166Z,18.07
2017-07-12T03:39:32.707Z,18.02
2017-07-12T03:40:13.251Z,17.9
2017-07-12T03:40:53.795Z,17.95
2017-07-12T03:41:34.337Z,17.9
2017-07-12T03:42:14.876Z,17.75
2017-07-12T03:42:55.414Z,17.81
2017-07-12T03:43:35.960Z,17.72
2017-07-12T03:44:16.496Z,17.64
2017-07-12T03:44:57.043Z,17.63
2017-07-12T03:45:37.653Z,17.54
2017-07-12T03:46:18.198Z,17.59
2017-07-12T03:46:58.747Z,17.54
2017-07-12T03:47:39.289Z,17.51
2017-07-12T03:48:19.830Z,17.58
2017-07-12T03:49:00.368Z,17.49
2017-07-12T03:49:40.907Z,17.48
2017-07-12T03:50:21.451Z,17.48
2017-07-12T03:51:01.986Z,17.41
2017-07-12T03:51:42.525Z,17.44
2017-07-12T03:52:23.066Z,17.37
2017-07-12T03:53:03.611Z,17.38
2017-07-12T03:53:44.147Z,17.41
2017-07-12T03:54:24.690Z,17.31
2017-07-12T03:55:05.229Z,17.28
2017-07-12T03:55:45.767Z,17.26
2017-07-12T03:56:26.309Z,17.26
2017-07-12T03:57:06.846Z,17.21
2017-07-12T03:57:47.389Z,17.19
2017-07-12T03:58:27.927Z,17.28
2017-07-12T03:59:08.481Z,17.22
2017-07-12T03:59:49.023Z,17.19
2017-07-12T04:00:29.567Z,17.25
2017-07-12T04:01:10.110Z,17.15
2017-07-12T04:01:50.650Z,17.25
2017-07-12T04:02:31.187Z,17.19
2017-07-12T04:03:11.731Z,17.16
2017-07-12T04:03:52.269Z,17.14
2017-07-12T04:04:32.809Z,17.12
2017-07-12T04:05:13.355Z,17.18
2017-07-12T04:05:53.902Z,17.11
2017-07-12T04:06:34.446Z,17.08
2017-07-12T04:07:14.991Z,17.14
2017-07-12T04:07:55.530Z,17.04
2017-07-12T04:08:36.070Z,17.06
2017-07-12T04:09:16.617Z,17.08
2017-07-12T04:09:57.161Z,17.12
2017-07-12T04:10:37.702Z,17.06
2017-07-12T04:11:18.239Z,17.01
2017-07-12T04:11:58.778Z,17.08
2017-07-12T04:12:39.318Z,17.06
2017-07-12T04:13:19.861Z,17.06
2017-07-12T04:14:00.398Z,17.08
2017-07-12T04:14:40.934Z,17.07
2017-07-12T04:15:21.483Z,17.04
2017-07-12T04:16:02.026Z,17.03
2017-07-12T04:16:42.555Z,17.04
2017-07-12T04:17:23.091Z,16.96
2017-07-12T04:18:03.631Z,17.01
2017-07-12T04:18:44.168Z,17
2017-07-12T04:19:24.711Z,16.97
2017-07-12T04:20:05.291Z,16.94
2017-07-12T04:20:45.835Z,16.94
2017-07-12T04:21:26.372Z,17.01
2017-07-12T04:22:06.912Z,16.98
2017-07-12T04:22:47.451Z,16.86
2017-07-12T04:23:27.994Z,16.93
2017-07-12T04:24:08.543Z,16.86
2017-07-12T04:24:49.080Z,16.94
2017-07-12T04:25:29.618Z,16.94
2017-07-12T04:26:10.157Z,16.91
2017-07-12T04:26:50.693Z,16.89
2017-07-12T04:27:31.241Z,16.89
2017-07-12T04:28:11.777Z,16.89
2017-07-12T04:28:52.313Z,16.97
2017-07-12T04:29:32.855Z,16.94
2017-07-12T04:30:13.399Z,16.96
2017-07-12T04:30:53.948Z,16.86
2017-07-12T04:31:34.491Z,16.89
2017-07-12T04:32:15.033Z,16.91
2017-07-12T04:32:55.568Z,16.91
2017-07-12T04:33:36.113Z,16.89
2017-07-12T04:34:16.647Z,16.94
2017-07-12T04:34:57.203Z,16.91
2017-07-12T04:35:37.732Z,16.89
2017-07-12T04:36:18.285Z,16.94
2017-07-12T04:36:58.851Z,16.88
2017-07-12T04:37:39.386Z,16.97
2017-07-12T04:38:19.931Z,16.89
2017-07-12T04:39:00.472Z,16.89
2017-07-12T04:39:41.026Z,16.89
2017-07-12T04:40:21.566Z,16.94
2017-07-12T04:41:02.125Z,16.85
2017-07-12T04:41:42.667Z,16.89
2017-07-12T04:42:23.209Z,16.88
2017-07-12T04:43:03.745Z,16.81
2017-07-12T04:43:44.289Z,16.86
2017-07-12T04:44:24.818Z,16.89
2017-07-12T04:45:05.360Z,16.86
2017-07-12T04:45:45.891Z,16.94
2017-07-12T04:46:26.432Z,16.86
2017-07-12T04:47:06.975Z,16.85
2017-07-12T04:47:47.521Z,16.85
2017-07-12T04:48:28.063Z,16.93
2017-07-12T04:49:08.603Z,16.88
2017-07-12T04:49:49.136Z,16.86
2017-07-12T04:50:29.675Z,16.91
2017-07-12T04:51:10.217Z,16.97
2017-07-12T04:51:50.749Z,16.89
2017-07-12T04:52:31.288Z,16.96
2017-07-12T04:53:11.828Z,16.88
2017-07-12T04:53:52.368Z,16.93
2017-07-12T04:54:32.907Z,16.93
2017-07-12T04:55:13.440Z,16.86
2017-07-12T04:55:53.983Z,16.98
2017-07-12T04:56:34.520Z,16.89
2017-07-12T04:57:15.063Z,16.86
2017-07-12T04:57:55.602Z,16.97
2017-07-12T04:58:36.155Z,16.91
2017-07-12T04:59:16.696Z,16.96
2017-07-12T04:59:57.242Z,16.88
2017-07-12T05:00:37.782Z,16.89
2017-07-12T05:01:18.323Z,16.97
2017-07-12T05:01:58.866Z,16.93
2017-07-12T05:02:39.399Z,16.89
2017-07-12T05:03:19.944Z,16.91
2017-07-12T05:04:00.488Z,16.94
2017-07-12T05:04:41.029Z,16.91
2017-07-12T05:05:21.569Z,16.91
2017-07-12T05:06:02.109Z,16.98
2017-07-12T05:06:42.648Z,16.96
2017-07-12T05:07:23.189Z,16.94
2017-07-12T05:08:03.735Z,16.94
2017-07-12T05:08:44.274Z,17
2017-07-12T05:09:24.821Z,16.96
2017-07-12T05:10:05.354Z,17.06
2017-07-12T05:10:45.894Z,17.07
2017-07-12T05:11:26.425Z,17.06
2017-07-12T05:12:06.962Z,17.01
2017-07-12T05:12:47.503Z,17.07
2017-07-12T05:13:28.090Z,17.07
2017-07-12T05:14:08.664Z,17.15
2017-07-12T05:14:49.247Z,17.12
2017-07-12T05:15:29.820Z,17.07
2017-07-12T05:16:10.362Z,17.15
2017-07-12T05:16:50.900Z,17.18
2017-07-12T05:17:31.435Z,17.18
2017-07-12T05:18:11.966Z,17.08
2017-07-12T05:18:52.505Z,17.18
2017-07-12T05:19:33.066Z,17.14
2017-07-12T05:20:13.582Z,17.03
2017-07-12T05:20:54.129Z,17.04
2017-07-12T05:21:34.670Z,17.12
2017-07-12T05:22:15.207Z,17.11
2017-07-12T05:22:55.749Z,17.11
2017-07-12T05:23:36.290Z,17.07
2017-07-12T05:24:16.831Z,17.06
2017-07-12T05:24:57.369Z,17.11
2017-07-12T05:25:37.892Z,17.03
2017-07-12T05:26:18.441Z,16.97
2017-07-12T05:26:59.037Z,17
2017-07-12T05:27:39.536Z,16.98
2017-07-12T05:28:20.084Z,16.93
2017-07-12T05:29:00.624Z,16.93
2017-07-12T05:29:41.161Z,16.91
2017-07-12T05:30:21.700Z,16.88
2017-07-12T05:31:02.249Z,16.85
2017-07-12T05:31:42.781Z,16.86
2017-07-12T05:32:23.314Z,16.89
2017-07-12T05:33:03.848Z,16.85
2017-07-12T05:33:44.388Z,16.81
2017-07-12T05:34:24.927Z,16.91
2017-07-12T05:35:05.454Z,16.96
2017-07-12T05:35:45.978Z,16.89
2017-07-12T05:36:26.516Z,16.93
2017-07-12T05:37:07.056Z,16.81
2017-07-12T05:37:47.596Z,16.81
2017-07-12T05:38:28.140Z,16.81
2017-07-12T05:39:08.751Z,16.83
2017-07-12T05:39:49.286Z,16.81
2017-07-12T05:40:29.818Z,16.81
2017-07-12T05:41:10.361Z,16.86
2017-07-12T05:41:50.900Z,16.85
2017-07-12T05:42:31.441Z,16.83
2017-07-12T05:43:11.987Z,16.86
2017-07-12T05:43:52.525Z,16.83
2017-07-12T05:44:33.066Z,16.89
2017-07-12T05:45:13.609Z,16.91
2017-07-12T05:45:54.144Z,16.88
2017-07-12T05:46:34.685Z,16.85
2017-07-12T05:47:15.223Z,16.82
2017-07-12T05:47:55.759Z,16.88
2017-07-12T05:48:36.499Z,16.85
2017-07-12T05:49:17.222Z,16.82
2017-07-12T05:49:57.756Z,16.88
2017-07-12T05:50:38.297Z,16.93
2017-07-12T05:51:18.845Z,16.94
2017-07-12T05:51:59.384Z,16.88
2017-07-12T05:52:39.930Z,16.85
2017-07-12T05:53:20.472Z,16.89
2017-07-12T05:54:01.010Z,16.88
2017-07-12T05:54:41.550Z,16.83
2017-07-12T05:55:22.080Z,16.82
2017-07-12T05:56:02.629Z,16.89
2017-07-12T05:56:43.162Z,16.85
2017-07-12T05:57:23.692Z,16.82
2017-07-12T05:58:04.231Z,16.81
2017-07-12T05:58:44.768Z,16.81
2017-07-12T05:59:25.289Z,16.82
2017-07-12T06:00:05.817Z,16.85
2017-07-12T06:00:46.363Z,16.78
2017-07-12T06:01:26.895Z,16.81
2017-07-12T06:02:07.439Z,16.81
2017-07-12T06:02:47.979Z,16.78
2017-07-12T06:03:28.513Z,16.68
2017-07-12T06:04:09.054Z,16.75
2017-07-12T06:04:49.572Z,16.68
2017-07-12T06:05:30.113Z,16.71
2017-07-12T06:06:10.654Z,16.75
2017-07-12T06:06:51.191Z,16.68
2017-07-12T06:07:31.729Z,16.64
2017-07-12T06:08:12.272Z,16.68
2017-07-12T06:08:52.811Z,16.64
2017-07-12T06:09:33.351Z,16.63
2017-07-12T06:10:13.890Z,16.66
2017-07-12T06:10:54.427Z,16.66
2017-07-12T06:11:34.986Z,16.71
2017-07-12T06:12:15.524Z,16.75
2017-07-12T06:12:56.063Z,16.67
2017-07-12T06:13:36.604Z,16.63
2017-07-12T06:14:17.141Z,16.66
2017-07-12T06:14:57.688Z,16.64
2017-07-12T06:15:38.246Z,16.63
2017-07-12T06:16:18.791Z,16.63
2017-07-12T06:16:59.325Z,16.67
2017-07-12T06:17:39.871Z,16.63
2017-07-12T06:18:20.388Z,16.63
2017-07-12T06:19:00.925Z,16.57
2017-07-12T06:19:41.479Z,16.66
2017-07-12T06:20:22.014Z,16.56
2017-07-12T06:21:02.555Z,16.56
2017-07-12T06:21:43.098Z,16.64
2017-07-12T06:22:23.640Z,16.68
2017-07-12T06:23:04.170Z,16.63
2017-07-12T06:23:44.711Z,16.63
2017-07-12T06:24:25.252Z,16.56
2017-07-12T06:25:05.793Z,16.57
2017-07-12T06:25:46.325Z,16.53
2017-07-12T06:26:26.873Z,16.58
2017-07-12T06:27:07.401Z,16.57
2017-07-12T06:27:47.948Z,16.53
2017-07-12T06:28:28.484Z,16.46
2017-07-12T06:29:09.027Z,16.58
2017-07-12T06:29:49.557Z,16.58
2017-07-12T06:30:30.088Z,16.56
2017-07-12T06:31:10.835Z,16.58
2017-07-12T06:31:51.377Z,16.58
2017-07-12T06:32:31.928Z,16.58
2017-07-12T06:33:12.463Z,16.5
2017-07-12T06:33:53.011Z,16.58
2017-07-12T06:34:33.550Z,16.56
2017-07-12T06:35:14.088Z,16.58
2017-07-12T06:35:54.624Z,16.57
2017-07-12T06:36:35.153Z,16.56
2017-07-12T06:37:15.698Z,16.61
2017-07-12T06:37:56.240Z,16.7
2017-07-12T06:38:36.782Z,16.64
2017-07-12T06:39:17.317Z,16.7
2017-07-12T06:39:57.853Z,16.63
2017-07-12T06:40:38.393Z,16.6
2017-07-12T06:41:18.937Z,16.58
2017-07-12T06:41:59.467Z,16.66
2017-07-12T06:42:40.009Z,16.7
2017-07-12T06:43:20.540Z,16.68
2017-07-12T06:44:01.071Z,16.63
2017-07-12T06:44:41.619Z,16.64
2017-07-12T06:45:22.562Z,16.68
2017-07-12T06:46:03.108Z,16.67
2017-07-12T06:46:43.651Z,16.7
2017-07-12T06:47:24.180Z,16.63
2017-07-12T06:48:04.704Z,16.67
2017-07-12T06:48:45.246Z,16.67
2017-07-12T06:49:25.789Z,16.7
2017-07-12T06:50:06.325Z,16.68
2017-07-12T06:50:46.884Z,16.64
2017-07-12T06:51:27.418Z,16.66
2017-07-12T06:52:08.013Z,16.66
2017-07-12T06:52:48.589Z,16.64
2017-07-12T06:53:29.110Z,16.63
2017-07-12T06:54:09.652Z,16.63
2017-07-12T06:54:50.192Z,16.71
2017-07-12T06:55:30.741Z,16.73
2017-07-12T06:56:11.280Z,16.66
2017-07-12T06:56:51.822Z,16.64
2017-07-12T06:57:32.360Z,16.7
2017-07-12T06:58:12.927Z,16.67
2017-07-12T06:58:53.393Z,16.76
2017-07-12T06:59:33.933Z,16.79
2017-07-12T07:00:14.943Z,16.78
2017-07-12T07:00:55.842Z,16.81
2017-07-12T07:01:36.387Z,16.78
2017-07-12T07:02:16.963Z,16.82
2017-07-12T07:02:57.465Z,16.81
2017-07-12T07:03:37.997Z,16.79
2017-07-12T07:04:18.514Z,16.81
2017-07-12T07:04:59.063Z,16.88
2017-07-12T07:05:39.602Z,16.89
2017-07-12T07:06:20.140Z,16.86
2017-07-12T07:07:00.674Z,16.89
2017-07-12T07:07:41.211Z,16.94
2017-07-12T07:08:21.740Z,16.96
2017-07-12T07:09:02.284Z,16.88
2017-07-12T07:09:42.822Z,16.93
2017-07-12T07:10:23.356Z,16.97
2017-07-12T07:11:03.901Z,17
2017-07-12T07:11:44.435Z,16.98
2017-07-12T07:12:24.970Z,17.07
2017-07-12T07:13:05.514Z,17.03
2017-07-12T07:13:46.046Z,17.07
2017-07-12T07:14:26.584Z,17.04
2017-07-12T07:15:07.126Z,17.06
2017-07-12T07:15:47.661Z,17.15
2017-07-12T07:16:28.209Z,17.16
2017-07-12T07:17:08.748Z,17.18
2017-07-12T07:17:49.288Z,17.16
2017-07-12T07:18:29.821Z,17.3
2017-07-12T07:19:10.365Z,17.33
2017-07-12T07:19:50.892Z,17.22
2017-07-12T07:20:31.457Z,17.33
2017-07-12T07:21:12.003Z,17.23
2017-07-12T07:21:52.540Z,17.22
2017-07-12T07:22:33.073Z,17.21
2017-07-12T07:23:13.605Z,17.14
2017-07-12T07:23:54.152Z,17.06
2017-07-12T07:24:34.692Z,17.06
2017-07-12T07:25:15.225Z,17.11
2017-07-12T07:25:55.760Z,17.04
2017-07-12T07:26:36.306Z,17
2017-07-12T07:27:16.848Z,16.94
2017-07-12T07:27:57.381Z,17.01
2017-07-12T07:28:37.917Z,16.86
2017-07-12T07:29:18.445Z,16.96
2017-07-12T07:29:58.984Z,16.89
2017-07-12T07:30:39.518Z,16.93
2017-07-12T07:31:20.062Z,16.91
2017-07-12T07:32:00.611Z,16.93
2017-07-12T07:32:41.150Z,16.89
2017-07-12T07:33:21.692Z,16.86
2017-07-12T07:34:02.234Z,16.79
2017-07-12T07:34:42.776Z,16.79
2017-07-12T07:35:23.320Z,16.86
2017-07-12T07:36:03.859Z,16.81
2017-07-12T07:36:44.403Z,16.85
2017-07-12T07:37:24.939Z,16.91
2017-07-12T07:38:05.481Z,16.86
2017-07-12T07:38:46.020Z,16.82
2017-07-12T07:39:26.555Z,16.82
2017-07-12T07:40:07.104Z,16.85
2017-07-12T07:40:47.649Z,16.93
2017-07-12T07:41:28.186Z,16.85
2017-07-12T07:42:08.731Z,16.86
2017-07-12T07:42:49.263Z,16.88
2017-07-12T07:43:29.796Z,16.88
2017-07-12T07:44:10.336Z,16.88
2017-07-12T07:44:50.877Z,16.86
2017-07-12T07:45:31.424Z,16.91
2017-07-12T07:46:11.965Z,16.91
2017-07-12T07:46:52.511Z,16.85
2017-07-12T07:47:33.077Z,16.83
2017-07-12T07:48:13.617Z,16.81
2017-07-12T07:48:54.164Z,16.89
2017-07-12T07:49:34.713Z,16.89
2017-07-12T07:50:15.245Z,16.86
2017-07-12T07:50:55.793Z,16.88
2017-07-12T07:51:36.334Z,16.89
2017-07-12T07:52:16.873Z,16.88
2017-07-12T07:52:57.416Z,16.86
2017-07-12T07:53:37.941Z,16.86
2017-07-12T07:54:18.487Z,16.88
2017-07-12T07:54:59.027Z,16.89
2017-07-12T07:55:39.570Z,16.82
2017-07-12T07:56:20.117Z,16.76
2017-07-12T07:57:00.655Z,16.83
2017-07-12T07:57:41.194Z,16.81
2017-07-12T07:58:21.734Z,16.83
2017-07-12T07:59:02.272Z,16.83
2017-07-12T07:59:42.806Z,16.79
2017-07-12T08:00:23.341Z,16.82
2017-07-12T08:01:03.881Z,16.89
2017-07-12T08:01:44.424Z,16.83
2017-07-12T08:02:24.971Z,16.91
2017-07-12T08:03:05.515Z,16.89
2017-07-12T08:03:46.056Z,16.93
2017-07-12T08:04:26.603Z,16.96
2017-07-12T08:05:07.152Z,16.93
2017-07-12T08:05:47.702Z,16.88
2017-07-12T08:06:28.245Z,16.88
2017-07-12T08:07:08.786Z,16.89
2017-07-12T08:07:49.317Z,16.93
2017-07-12T08:08:29.856Z,16.96
2017-07-12T08:09:10.400Z,16.94
2017-07-12T08:09:50.950Z,16.94
2017-07-12T08:10:31.485Z,16.91
2017-07-12T08:11:12.021Z,16.94
2017-07-12T08:11:52.562Z,16.93
2017-07-12T08:12:33.105Z,17.01
2017-07-12T08:13:13.648Z,16.93
2017-07-12T08:13:54.189Z,16.91
2017-07-12T08:14:34.725Z,16.91
2017-07-12T08:15:15.259Z,16.98
2017-07-12T08:15:55.805Z,16.94
2017-07-12T08:16:36.345Z,16.91
2017-07-12T08:17:16.886Z,16.89
2017-07-12T08:17:57.437Z,16.96
2017-07-12T08:18:37.983Z,16.96
2017-07-12T08:19:18.518Z,16.94
2017-07-12T08:19:59.067Z,16.98
2017-07-12T08:20:39.606Z,16.97
2017-07-12T08:21:20.146Z,17
2017-07-12T08:22:00.684Z,16.89
2017-07-12T08:22:41.219Z,16.76
2017-07-12T08:23:21.756Z,16.93
2017-07-12T08:24:02.299Z,16.78
2017-07-12T08:24:42.846Z,16.93
2017-07-12T08:25:23.383Z,16.91
2017-07-12T08:26:03.916Z,16.96
2017-07-12T08:26:44.502Z,16.97
2017-07-12T08:27:24.976Z,16.96
2017-07-12T08:28:05.511Z,17
2017-07-12T08:28:46.047Z,16.97
2017-07-12T08:29:26.607Z,16.96
2017-07-12T08:30:07.143Z,16.91
2017-07-12T08:30:47.684Z,17
2017-07-12T08:31:28.231Z,17.01
2017-07-12T08:32:08.779Z,17.08
2017-07-12T08:32:49.315Z,17.01
2017-07-12T08:33:29.860Z,17.04
2017-07-12T08:34:10.398Z,17.01
2017-07-12T08:34:50.935Z,17.06
2017-07-12T08:35:31.469Z,17.01
2017-07-12T08:36:12.007Z,17
2017-07-12T08:36:52.556Z,16.97
2017-07-12T08:37:33.094Z,16.94
2017-07-12T08:38:13.639Z,16.97
2017-07-12T08:38:54.177Z,16.94
2017-07-12T08:39:34.766Z,16.98
2017-07-12T08:40:15.241Z,16.91
2017-07-12T08:40:55.788Z,16.89
2017-07-12T08:41:36.325Z,16.86
2017-07-12T08:42:16.867Z,16.85
2017-07-12T08:42:57.421Z,16.91
2017-07-12T08:43:37.961Z,16.85